createdAt,value
2022-09-26T00:01:37.987Z,5.72
2022-09-26T00:04:32.587Z,6.45
2022-09-26T00:07:00.863Z,5.32
2022-09-26T00:09:28.972Z,5.97
2022-09-26T00:11:56.924Z,6.22
2022-09-26T00:14:27.529Z,5.90
2022-09-26T00:19:23.519Z,5.22
2022-09-26T00:21:51.407Z,5.70
2022-09-26T00:24:19.617Z,5.18
2022-09-26T00:26:47.264Z,5.28
2022-09-26T00:29:14.914Z,5.60
2022-09-26T00:31:46.012Z,5.60
2022-09-26T00:34:16.455Z,5.35
2022-09-26T00:36:44.456Z,5.35
2022-09-26T00:39:14.359Z,5.05
2022-09-26T00:41:42.457Z,5.28
2022-09-26T00:44:43.953Z,5.60
2022-09-26T00:47:46.451Z,5.07
2022-09-26T00:50:29.059Z,5.03
2022-09-26T00:53:02.859Z,4.95
2022-09-26T00:55:36.344Z,4.90
2022-09-26T00:58:52.067Z,4.68
2022-09-26T01:01:20.775Z,4.70
2022-09-26T01:03:50.346Z,4.40
2022-09-26T01:06:18.827Z,4.68
2022-09-26T01:08:53.968Z,4.75
2022-09-26T01:11:22.799Z,4.22
2022-09-26T01:13:54.566Z,4.30
2022-09-26T01:16:24.056Z,4.12
2022-09-26T01:18:51.936Z,4.50
2022-09-26T01:21:48.776Z,4.07
2022-09-26T01:24:48.133Z,4.57
2022-09-26T01:27:24.499Z,4.72
2022-09-26T01:30:05.715Z,4.22
2022-09-26T01:32:58.296Z,4.70
2022-09-26T01:35:39.158Z,4.22
2022-09-26T01:38:25.067Z,3.93
2022-09-26T01:40:53.057Z,3.92
2022-09-26T01:43:52.752Z,4.05
2022-09-26T01:46:56.819Z,4.10
2022-09-26T01:49:46.821Z,4.00
2022-09-26T01:52:50.284Z,4.27
2022-09-26T01:55:23.896Z,4.12
2022-09-26T01:58:10.133Z,4.30
2022-09-26T02:00:41.850Z,4.07
2022-09-26T02:03:17.226Z,4.70
2022-09-26T02:05:52.907Z,4.40
2022-09-26T02:08:27.929Z,4.25
2022-09-26T02:11:07.974Z,4.57
2022-09-26T02:13:43.748Z,4.25
2022-09-26T02:16:19.544Z,4.45
2022-09-26T02:18:57.089Z,4.20
2022-09-26T02:21:25.092Z,4.00
2022-09-26T02:23:54.475Z,4.22
2022-09-26T02:26:23.979Z,4.25
2022-09-26T02:28:52.601Z,4.25
2022-09-26T02:31:24.593Z,4.25
2022-09-26T02:33:54.071Z,4.28
2022-09-26T02:36:24.122Z,4.40
2022-09-26T02:38:53.361Z,4.45
2022-09-26T02:41:43.374Z,4.12
2022-09-26T02:44:45.739Z,4.47
2022-09-26T02:47:32.987Z,4.55
2022-09-26T02:50:25.573Z,4.40
2022-09-26T02:53:19.165Z,4.37
2022-09-26T02:56:17.719Z,4.35
2022-09-26T02:59:10.271Z,4.70
2022-09-26T03:01:55.053Z,4.60
2022-09-26T03:04:55.407Z,4.65
2022-09-26T03:07:46.318Z,4.50
2022-09-26T03:10:15.021Z,4.25
2022-09-26T03:12:45.188Z,4.50
2022-09-26T03:15:14.509Z,4.35
2022-09-26T03:17:47.728Z,4.47
2022-09-26T03:20:21.691Z,4.82
2022-09-26T03:22:49.739Z,5.00
2022-09-26T03:25:24.632Z,4.25
2022-09-26T03:27:53.996Z,4.60
2022-09-26T03:30:23.373Z,4.70
2022-09-26T03:32:51.923Z,4.82
2022-09-26T03:35:19.454Z,4.68
2022-09-26T03:37:48.091Z,4.12
2022-09-26T03:40:16.091Z,4.00
2022-09-26T03:42:46.838Z,4.53
2022-09-26T03:45:15.025Z,4.25
2022-09-26T03:47:44.131Z,4.40
2022-09-26T03:50:14.130Z,4.35
2022-09-26T03:52:42.670Z,4.32
2022-09-26T03:55:10.210Z,4.43
2022-09-26T03:57:37.707Z,4.70
2022-09-26T04:00:08.445Z,5.70
2022-09-26T04:02:44.479Z,5.90
2022-09-26T04:05:13.106Z,4.87
2022-09-26T04:07:40.842Z,4.62
2022-09-26T04:10:11.052Z,4.55
2022-09-26T04:12:39.952Z,4.93
2022-09-26T04:15:08.208Z,4.90
2022-09-26T04:17:36.455Z,4.70
2022-09-26T04:20:05.049Z,4.90
2022-09-26T04:22:33.653Z,4.87
2022-09-26T04:25:01.266Z,4.60
2022-09-26T04:27:30.612Z,4.57
2022-09-26T04:29:58.208Z,4.57
2022-09-26T04:32:26.282Z,4.43
2022-09-26T04:34:58.407Z,4.68
2022-09-26T04:37:25.960Z,4.95
2022-09-26T04:39:53.803Z,5.00
2022-09-26T04:42:22.133Z,4.40
2022-09-26T04:44:49.688Z,4.78
2022-09-26T04:47:17.769Z,4.60
2022-09-26T04:49:47.019Z,4.55
2022-09-26T04:52:15.231Z,4.90
2022-09-26T04:54:43.059Z,5.18
2022-09-26T04:57:19.354Z,5.25
2022-09-26T04:59:47.577Z,4.80
2022-09-26T05:02:15.802Z,4.95
2022-09-26T05:04:43.606Z,4.95
2022-09-26T05:07:11.991Z,4.80
2022-09-26T05:09:40.031Z,5.47
2022-09-26T05:12:07.664Z,5.70
2022-09-26T05:14:36.582Z,5.57
2022-09-26T05:17:04.712Z,5.72
2022-09-26T05:19:32.980Z,5.85
2022-09-26T05:22:02.206Z,5.50
2022-09-26T05:24:49.262Z,5.97
2022-09-26T05:27:18.659Z,5.40
2022-09-26T05:29:46.641Z,6.35
2022-09-26T05:32:16.229Z,5.62
2022-09-26T05:34:43.893Z,6.10
2022-09-26T05:37:12.581Z,5.70
2022-09-26T05:39:59.078Z,5.53
2022-09-26T05:42:27.579Z,5.53
2022-09-26T05:44:55.155Z,5.43
2022-09-26T05:47:23.497Z,5.60
2022-09-26T05:49:51.361Z,5.97
2022-09-26T05:52:19.051Z,5.97
2022-09-26T05:54:46.645Z,6.80
2022-09-26T05:57:19.103Z,7.60
2022-09-26T05:59:46.982Z,8.07
2022-09-26T06:02:20.660Z,7.68
2022-09-26T06:04:49.478Z,7.47
2022-09-26T06:07:18.829Z,6.85
2022-09-26T06:09:46.943Z,6.12
2022-09-26T06:12:14.771Z,7.07
2022-09-26T06:14:46.826Z,6.57
2022-09-26T06:17:14.661Z,6.30
2022-09-26T06:19:44.513Z,6.87
2022-09-26T06:22:12.114Z,7.37
2022-09-26T06:24:39.697Z,7.72
2022-09-26T06:27:10.949Z,8.00
2022-09-26T06:29:39.287Z,7.22
2022-09-26T06:32:06.935Z,7.90
2022-09-26T06:34:35.921Z,8.10
2022-09-26T06:37:04.689Z,7.07
2022-09-26T06:39:37.039Z,7.35
2022-09-26T06:42:07.486Z,7.20
2022-09-26T06:44:35.333Z,7.50
2022-09-26T06:47:03.236Z,8.13
2022-09-26T06:49:31.559Z,9.00
2022-09-26T06:52:01.940Z,7.20
2022-09-26T06:54:29.620Z,7.75
2022-09-26T06:56:57.403Z,7.90
2022-09-26T06:59:25.151Z,7.22
2022-09-26T07:01:54.337Z,7.40
2022-09-26T07:04:27.374Z,7.12
2022-09-26T07:06:58.355Z,7.22
2022-09-26T07:09:31.173Z,7.80
2022-09-26T07:12:16.479Z,7.15
2022-09-26T07:14:44.504Z,8.05
2022-09-26T07:17:18.181Z,7.68
2022-09-26T07:19:51.942Z,7.40
2022-09-26T07:22:19.864Z,9.43
2022-09-26T07:24:50.285Z,9.85
2022-09-26T07:27:18.219Z,10.90
2022-09-26T07:29:47.282Z,7.60
2022-09-26T07:32:16.065Z,7.77
2022-09-26T07:34:43.998Z,7.82
2022-09-26T07:37:11.999Z,7.25
2022-09-26T07:39:40.194Z,7.43
2022-09-26T07:42:09.700Z,7.22
2022-09-26T07:47:43.954Z,7.97
2022-09-26T07:50:17.726Z,7.80
2022-09-26T07:52:47.519Z,8.35
2022-09-26T07:55:22.461Z,8.18
2022-09-26T07:57:53.464Z,8.15
2022-09-26T08:00:21.596Z,8.82
2022-09-26T08:02:52.827Z,8.70
2022-09-26T08:05:20.830Z,8.43
2022-09-26T08:07:49.410Z,9.68
2022-09-26T08:10:22.033Z,9.25
2022-09-26T08:12:51.947Z,9.13
2022-09-26T08:15:20.417Z,8.75
2022-09-26T08:17:48.917Z,8.90
2022-09-26T08:20:16.790Z,8.45
2022-09-26T08:22:44.316Z,8.90
2022-09-26T08:25:12.642Z,7.95
2022-09-26T08:27:43.595Z,8.10
2022-09-26T08:30:11.744Z,8.35
2022-09-26T08:32:39.537Z,8.50
2022-09-26T08:35:14.928Z,9.02
2022-09-26T08:37:44.230Z,7.97
2022-09-26T08:40:32.406Z,8.13
2022-09-26T08:43:16.286Z,8.63
2022-09-26T08:46:31.794Z,8.23
2022-09-26T08:49:16.634Z,9.00
2022-09-26T08:51:49.601Z,8.93
2022-09-26T08:54:22.245Z,8.60
2022-09-26T08:56:55.717Z,8.80
2022-09-26T08:59:27.879Z,8.88
2022-09-26T09:02:02.320Z,9.30
2022-09-26T09:04:44.638Z,7.95
2022-09-26T09:07:24.597Z,8.70
2022-09-26T09:09:59.363Z,8.70
2022-09-26T09:12:43.117Z,8.30
2022-09-26T09:15:49.681Z,9.38
2022-09-26T09:18:54.937Z,8.93
2022-09-26T09:21:30.189Z,7.78
2022-09-26T09:23:58.780Z,8.68
2022-09-26T09:29:58.038Z,8.00
2022-09-26T09:32:35.313Z,8.20
2022-09-26T09:35:04.391Z,8.95
2022-09-26T09:37:44.049Z,8.43
2022-09-26T09:40:31.988Z,8.30
2022-09-26T09:43:18.235Z,8.23
2022-09-26T09:45:51.449Z,9.05
2022-09-26T09:48:19.871Z,8.50
2022-09-26T09:51:12.907Z,8.30
2022-09-26T09:54:24.530Z,8.77
2022-09-26T10:00:22.277Z,8.88
2022-09-26T10:03:19.104Z,8.45
2022-09-26T10:05:51.697Z,9.05
2022-09-26T10:08:28.666Z,9.55
2022-09-26T10:11:07.944Z,9.75
2022-09-26T10:13:42.710Z,9.90
2022-09-26T10:16:15.338Z,9.27
2022-09-26T10:19:03.613Z,9.35
2022-09-26T10:21:36.923Z,10.05
2022-09-26T10:24:07.218Z,9.70
2022-09-26T10:26:37.255Z,9.80
2022-09-26T10:29:21.899Z,10.07
2022-09-26T10:31:56.393Z,10.70
2022-09-26T10:34:28.122Z,11.98
2022-09-26T10:36:57.038Z,11.50
2022-09-26T10:39:48.621Z,10.68
2022-09-26T10:42:22.396Z,11.00
2022-09-26T10:44:57.267Z,11.52
2022-09-26T10:47:31.040Z,12.43
2022-09-26T10:50:11.962Z,11.93
2022-09-26T10:52:49.705Z,11.25
2022-09-26T10:55:24.807Z,11.52
2022-09-26T10:57:56.880Z,11.10
2022-09-26T11:00:43.663Z,10.57
2022-09-26T11:03:16.375Z,11.07
2022-09-26T11:05:57.770Z,10.93
2022-09-26T11:08:34.415Z,10.52
2022-09-26T11:11:08.967Z,10.15
2022-09-26T11:13:50.072Z,10.38
2022-09-26T11:19:22.296Z,10.05
2022-09-26T11:21:51.461Z,10.60
2022-09-26T11:24:28.915Z,10.88
2022-09-26T11:27:19.440Z,10.32
2022-09-26T11:30:02.225Z,10.55
2022-09-26T11:32:38.783Z,10.15
2022-09-26T11:35:17.780Z,10.10
2022-09-26T11:38:09.642Z,10.30
2022-09-26T11:40:52.263Z,11.18
2022-09-26T11:43:39.543Z,10.68
2022-09-26T11:46:35.087Z,10.32
2022-09-26T11:49:16.061Z,10.10
2022-09-26T11:51:51.301Z,10.80
2022-09-26T11:54:33.906Z,10.57
2022-09-26T11:57:08.677Z,10.45
2022-09-26T12:00:01.850Z,10.57
2022-09-26T12:02:56.173Z,10.20
2022-09-26T12:05:38.226Z,10.40
2022-09-26T12:08:21.797Z,10.52
2022-09-26T12:11:24.676Z,10.70
2022-09-26T12:14:09.340Z,10.88
2022-09-26T12:16:58.805Z,10.75
2022-09-26T12:19:40.924Z,11.63
2022-09-26T12:22:31.063Z,10.63
2022-09-26T12:25:11.269Z,10.70
2022-09-26T12:27:58.801Z,10.65
2022-09-26T12:30:40.392Z,11.30
2022-09-26T12:33:08.134Z,11.15
2022-09-26T12:35:43.874Z,11.05
2022-09-26T12:38:28.457Z,11.55
2022-09-26T12:41:40.751Z,11.30
2022-09-26T12:44:23.501Z,11.20
2022-09-26T12:47:09.474Z,10.55
2022-09-26T12:49:55.128Z,11.68
2022-09-26T12:52:42.231Z,13.35
2022-09-26T12:55:33.122Z,12.05
2022-09-26T12:58:06.431Z,10.68
2022-09-26T13:00:43.138Z,11.50
2022-09-26T13:03:35.526Z,11.80
2022-09-26T13:06:23.164Z,10.55
2022-09-26T13:08:53.936Z,11.38
2022-09-26T13:11:49.163Z,10.43
2022-09-26T13:14:38.753Z,11.43
2022-09-26T13:17:19.851Z,10.40
2022-09-26T13:19:59.121Z,11.35
2022-09-26T13:22:47.815Z,11.77
2022-09-26T13:25:19.956Z,10.80
2022-09-26T13:28:05.270Z,11.38
2022-09-26T13:30:36.586Z,11.00
2022-09-26T13:33:20.733Z,11.20
2022-09-26T13:35:52.012Z,11.23
2022-09-26T13:38:39.154Z,10.45
2022-09-26T13:41:22.739Z,12.37
2022-09-26T13:44:03.484Z,12.95
2022-09-26T13:46:46.262Z,11.05
2022-09-26T13:49:34.023Z,10.55
2022-09-26T13:52:27.810Z,10.48
2022-09-26T13:55:03.320Z,10.45
2022-09-26T13:57:39.695Z,9.35
2022-09-26T14:00:35.711Z,9.40
2022-09-26T14:03:12.885Z,9.25
2022-09-26T14:05:44.104Z,9.45
2022-09-26T14:08:43.032Z,9.02
2022-09-26T14:11:19.666Z,9.48
2022-09-26T14:13:48.653Z,8.80
2022-09-26T14:16:28.773Z,8.90
2022-09-26T14:19:05.077Z,9.15
2022-09-26T14:21:57.319Z,9.15
2022-09-26T14:24:41.562Z,9.95
2022-09-26T14:27:12.005Z,9.43
2022-09-26T14:29:39.815Z,8.95
2022-09-26T14:32:10.456Z,9.85
2022-09-26T14:34:49.252Z,10.27
2022-09-26T14:37:25.693Z,9.40
2022-09-26T14:40:14.530Z,8.52
2022-09-26T14:42:42.352Z,9.20
2022-09-26T14:45:16.579Z,10.02
2022-09-26T14:47:49.171Z,9.57
2022-09-26T14:50:24.994Z,9.23
2022-09-26T14:52:57.997Z,10.43
2022-09-26T14:55:27.111Z,9.75
2022-09-26T14:58:15.629Z,9.85
2022-09-26T15:00:48.239Z,10.25
2022-09-26T15:03:19.542Z,9.07
2022-09-26T15:05:48.012Z,8.02
2022-09-26T15:08:32.911Z,8.30
2022-09-26T15:11:02.616Z,8.57
2022-09-26T15:13:36.245Z,9.27
2022-09-26T15:16:12.818Z,27.80
2022-09-26T15:18:45.239Z,46.85
2022-09-26T15:21:44.684Z,39.92
2022-09-26T15:24:41.965Z,36.03
2022-09-26T15:27:20.122Z,15.48
2022-09-26T15:29:54.721Z,9.30
2022-09-26T15:32:26.908Z,8.50
2022-09-26T15:34:56.922Z,9.05
2022-09-26T15:37:26.139Z,14.13
2022-09-26T15:39:53.715Z,10.60
2022-09-26T15:42:53.702Z,8.95
2022-09-26T15:45:34.395Z,9.40
2022-09-26T15:51:07.475Z,9.15
2022-09-26T15:53:41.008Z,10.25
2022-09-26T15:56:13.870Z,9.40
2022-09-26T15:59:02.014Z,11.65
2022-09-26T16:01:31.516Z,9.50
2022-09-26T16:04:16.763Z,9.70
2022-09-26T16:06:56.712Z,9.77
2022-09-26T16:09:38.883Z,9.90
2022-09-26T16:12:15.479Z,8.90
2022-09-26T16:14:58.698Z,9.60
2022-09-26T16:17:28.956Z,9.40
2022-09-26T16:20:01.704Z,9.55
2022-09-26T16:22:45.614Z,9.05
2022-09-26T16:25:23.051Z,8.20
2022-09-26T16:27:58.166Z,8.32
2022-09-26T16:30:27.172Z,9.00
2022-09-26T16:32:59.358Z,9.48
2022-09-26T16:35:29.680Z,9.00
2022-09-26T16:38:01.646Z,11.63
2022-09-26T16:40:31.764Z,22.98
2022-09-26T16:43:35.151Z,21.92
2022-09-26T16:46:14.871Z,15.48
2022-09-26T16:48:42.766Z,11.98
2022-09-26T16:51:13.967Z,10.48
2022-09-26T16:53:47.118Z,10.52
2022-09-26T16:56:18.000Z,10.50
2022-09-26T16:58:51.402Z,10.13
2022-09-26T17:01:38.022Z,9.93
2022-09-26T17:04:11.769Z,9.57
2022-09-26T17:06:39.837Z,8.95
2022-09-26T17:09:17.547Z,9.52
2022-09-26T17:11:47.833Z,9.55
2022-09-26T17:14:22.397Z,10.00
2022-09-26T17:16:55.247Z,9.20
2022-09-26T17:19:25.144Z,9.70
2022-09-26T17:21:53.430Z,9.53
2022-09-26T17:24:25.685Z,9.35
2022-09-26T17:26:59.413Z,8.65
2022-09-26T17:29:42.942Z,9.70
2022-09-26T17:32:33.279Z,10.20
2022-09-26T17:35:12.565Z,12.70
2022-09-26T17:37:40.473Z,15.60
2022-09-26T17:40:20.838Z,16.17
2022-09-26T17:42:50.920Z,17.42
2022-09-26T17:45:19.584Z,16.45
2022-09-26T17:47:47.583Z,17.60
2022-09-26T17:50:26.439Z,19.85
2022-09-26T17:52:54.319Z,21.05
2022-09-26T17:55:24.558Z,21.08
2022-09-26T17:57:52.298Z,18.77
2022-09-26T18:00:21.131Z,17.83
2022-09-26T18:02:52.884Z,16.83
2022-09-26T18:05:22.639Z,24.80
2022-09-26T18:07:53.326Z,18.33
2022-09-26T18:10:33.191Z,17.83
2022-09-26T18:13:12.965Z,17.00
2022-09-26T18:15:41.586Z,17.42
2022-09-26T18:18:14.496Z,19.85
2022-09-26T18:20:42.938Z,18.65
2022-09-26T18:23:16.427Z,18.15
2022-09-26T18:25:47.234Z,14.95
2022-09-26T18:28:17.594Z,15.27
2022-09-26T18:30:49.570Z,15.07
2022-09-26T18:33:19.595Z,14.25
2022-09-26T18:35:48.877Z,14.85
2022-09-26T18:38:17.042Z,14.93
2022-09-26T18:40:54.822Z,14.90
2022-09-26T18:43:25.185Z,15.68
2022-09-26T18:45:53.055Z,14.85
2022-09-26T18:48:20.592Z,14.95
2022-09-26T18:50:49.106Z,15.20
2022-09-26T18:53:19.693Z,15.32
2022-09-26T18:56:06.421Z,14.87
2022-09-26T18:58:35.632Z,16.85
2022-09-26T19:01:26.480Z,20.42
2022-09-26T19:03:57.426Z,25.02
2022-09-26T19:06:32.072Z,22.13
2022-09-26T19:09:02.769Z,23.12
2022-09-26T19:11:33.409Z,22.52
2022-09-26T19:14:26.920Z,21.02
2022-09-26T19:16:55.615Z,21.92
2022-09-26T19:19:24.584Z,21.98
2022-09-26T19:21:56.202Z,22.55
2022-09-26T19:24:35.471Z,22.60
2022-09-26T19:27:18.724Z,22.67
2022-09-26T19:29:57.098Z,21.87
2022-09-26T19:32:33.137Z,22.35
2022-09-26T19:35:06.080Z,20.52
2022-09-26T19:37:33.797Z,20.85
2022-09-26T19:40:01.837Z,20.98
2022-09-26T19:42:29.632Z,22.40
2022-09-26T19:44:59.210Z,21.92
2022-09-26T19:47:30.138Z,21.10
2022-09-26T19:49:57.874Z,20.02
2022-09-26T19:52:25.631Z,20.55
2022-09-26T19:54:54.532Z,19.85
2022-09-26T19:57:23.229Z,17.87
2022-09-26T19:59:51.618Z,18.58
2022-09-26T20:02:24.195Z,18.27
2022-09-26T20:04:52.255Z,18.55
2022-09-26T20:07:20.143Z,18.42
2022-09-26T20:09:47.947Z,18.70
2022-09-26T20:12:16.106Z,19.17
2022-09-26T20:14:43.672Z,19.33
2022-09-26T20:17:23.383Z,20.75
2022-09-26T20:19:57.748Z,23.55
2022-09-26T20:22:26.657Z,20.85
2022-09-26T20:24:55.817Z,19.58
2022-09-26T20:27:26.455Z,19.45
2022-09-26T20:30:14.662Z,18.98
2022-09-26T20:32:42.802Z,20.08
2022-09-26T20:35:14.303Z,20.08
2022-09-26T20:37:42.749Z,19.58
2022-09-26T20:40:18.439Z,19.55
2022-09-26T20:42:50.713Z,20.83
2022-09-26T20:45:25.504Z,21.42
2022-09-26T20:47:53.378Z,21.92
2022-09-26T20:50:21.480Z,21.10
2022-09-26T20:52:49.536Z,20.70
2022-09-26T20:55:19.301Z,20.20
2022-09-26T20:57:48.038Z,20.33
2022-09-26T21:00:21.041Z,20.75
2022-09-26T21:02:52.408Z,20.15
2022-09-26T21:05:24.522Z,20.83
2022-09-26T21:07:54.340Z,19.75
2022-09-26T21:10:33.020Z,18.27
2022-09-26T21:13:01.684Z,18.70
2022-09-26T21:15:31.475Z,18.48
2022-09-26T21:18:01.011Z,19.23
2022-09-26T21:20:32.159Z,18.77
2022-09-26T21:23:02.004Z,18.58
2022-09-26T21:25:31.925Z,19.25
2022-09-26T21:28:15.629Z,20.85
2022-09-26T21:30:43.727Z,21.25
2022-09-26T21:33:13.611Z,21.60
2022-09-26T21:35:41.757Z,23.48
2022-09-26T21:38:10.277Z,21.77
2022-09-26T21:40:40.399Z,23.35
2022-09-26T21:43:14.001Z,22.70
2022-09-26T21:45:46.255Z,24.67
2022-09-26T21:48:15.288Z,24.87
2022-09-26T21:50:57.598Z,23.23
2022-09-26T21:53:51.573Z,23.27
2022-09-26T21:56:25.743Z,23.10
2022-09-26T21:58:53.480Z,22.33
2022-09-26T22:01:21.951Z,23.42
2022-09-26T22:03:49.901Z,21.67
2022-09-26T22:06:17.533Z,23.83
2022-09-26T22:08:45.128Z,24.77
2022-09-26T22:11:14.319Z,23.65
2022-09-26T22:13:41.957Z,23.58
2022-09-26T22:16:11.987Z,23.05
2022-09-26T22:18:40.444Z,23.33
2022-09-26T22:21:11.015Z,23.05
2022-09-26T22:23:38.870Z,23.75
2022-09-26T22:26:07.431Z,21.67
2022-09-26T22:28:35.119Z,20.05
2022-09-26T22:31:05.119Z,19.48
2022-09-26T22:33:33.957Z,18.95
2022-09-26T22:36:01.883Z,20.73
2022-09-26T22:38:29.993Z,20.23
2022-09-26T22:40:59.800Z,22.55
2022-09-26T22:43:27.983Z,26.00
2022-09-26T22:46:03.249Z,22.70
2022-09-26T22:48:36.050Z,21.80
2022-09-26T22:51:04.698Z,22.87
2022-09-26T22:53:35.470Z,22.33
2022-09-26T22:56:08.141Z,21.42
2022-09-26T22:58:47.458Z,22.08
2022-09-26T23:01:18.683Z,21.52
2022-09-26T23:03:46.739Z,20.50
2022-09-26T23:06:14.890Z,18.80
2022-09-26T23:08:42.627Z,18.77
2022-09-26T23:11:11.981Z,17.33
2022-09-26T23:13:39.779Z,17.77
2022-09-26T23:16:13.410Z,20.08
2022-09-26T23:18:41.922Z,20.25
2022-09-26T23:21:12.157Z,18.00
2022-09-26T23:23:41.779Z,15.77
2022-09-26T23:26:31.257Z,16.45
2022-09-26T23:28:59.500Z,15.50
2022-09-26T23:31:28.586Z,15.10
2022-09-26T23:33:57.536Z,14.68
2022-09-26T23:36:25.421Z,15.88
2022-09-26T23:38:53.847Z,15.45
2022-09-26T23:41:21.746Z,13.82
2022-09-26T23:43:49.440Z,14.20
2022-09-26T23:46:17.756Z,14.15
2022-09-26T23:48:45.891Z,14.68
2022-09-26T23:51:13.904Z,15.10
2022-09-26T23:53:41.820Z,15.25
2022-09-26T23:56:12.006Z,13.55
2022-09-26T23:58:40.363Z,14.23
